sensor_id;sensor_type;location;lat;lon;timestamp;temperature;humidity
28614;DHT22;15806;53.548;9.964;2022-08-30T00:01:27;16.60;99.90
28614;DHT22;15806;53.548;9.964;2022-08-30T00:03:09;16.60;99.90
28614;DHT22;15806;53.548;9.964;2022-08-30T00:04:50;16.60;99.90
28614;DHT22;15806;53.548;9.964;2022-08-30T00:06:30;16.60;99.90
28614;DHT22;15806;53.548;9.964;2022-08-30T00:08:12;16.60;99.90
28614;DHT22;15806;53.548;9.964;2022-08-30T00:09:52;16.60;99.90
28614;DHT22;15806;53.548;9.964;2022-08-30T00:11:33;16.60;99.90
28614;DHT22;15806;53.548;9.964;2022-08-30T00:13:13;16.60;99.90
28614;DHT22;15806;53.548;9.964;2022-08-30T00:14:54;16.60;99.90
28614;DHT22;15806;53.548;9.964;2022-08-30T00:16:34;16.60;99.90
28614;DHT22;15806;53.548;9.964;2022-08-30T00:18:16;16.60;99.90
28614;DHT22;15806;53.548;9.964;2022-08-30T00:19:57;16.60;99.90
28614;DHT22;15806;53.548;9.964;2022-08-30T00:21:41;16.60;99.90
28614;DHT22;15806;53.548;9.964;2022-08-30T00:23:21;16.60;99.90
28614;DHT22;15806;53.548;9.964;2022-08-30T00:25:03;16.60;99.90
28614;DHT22;15806;53.548;9.964;2022-08-30T00:26:44;16.60;99.90
28614;DHT22;15806;53.548;9.964;2022-08-30T00:28:24;16.60;99.90
28614;DHT22;15806;53.548;9.964;2022-08-30T00:30:05;16.60;99.90
28614;DHT22;15806;53.548;9.964;2022-08-30T00:31:47;16.60;99.90
28614;DHT22;15806;53.548;9.964;2022-08-30T00:33:28;16.60;99.90
28614;DHT22;15806;53.548;9.964;2022-08-30T00:35:11;16.60;99.90
28614;DHT22;15806;53.548;9.964;2022-08-30T00:36:51;16.60;99.90
28614;DHT22;15806;53.548;9.964;2022-08-30T00:38:32;16.60;99.90
28614;DHT22;15806;53.548;9.964;2022-08-30T00:40:13;16.60;99.90
28614;DHT22;15806;53.548;9.964;2022-08-30T00:41:54;16.60;99.90
28614;DHT22;15806;53.548;9.964;2022-08-30T00:43:35;16.60;99.90
28614;DHT22;15806;53.548;9.964;2022-08-30T00:45:28;16.60;99.90
28614;DHT22;15806;53.548;9.964;2022-08-30T00:47:09;16.60;99.90
28614;DHT22;15806;53.548;9.964;2022-08-30T00:48:50;16.60;99.90
28614;DHT22;15806;53.548;9.964;2022-08-30T00:50:37;16.60;99.90
28614;DHT22;15806;53.548;9.964;2022-08-30T00:52:19;16.60;99.90
28614;DHT22;15806;53.548;9.964;2022-08-30T00:54:01;16.60;99.90
28614;DHT22;15806;53.548;9.964;2022-08-30T00:55:42;16.60;99.90
28614;DHT22;15806;53.548;9.964;2022-08-30T00:57:23;16.60;99.90
28614;DHT22;15806;53.548;9.964;2022-08-30T00:59:05;16.60;99.90
28614;DHT22;15806;53.548;9.964;2022-08-30T01:00:49;16.60;99.90
28614;DHT22;15806;53.548;9.964;2022-08-30T01:02:30;16.60;99.90
28614;DHT22;15806;53.548;9.964;2022-08-30T01:04:11;16.60;99.90
28614;DHT22;15806;53.548;9.964;2022-08-30T01:05:53;16.60;99.90
28614;DHT22;15806;53.548;9.964;2022-08-30T01:07:36;16.60;99.90
28614;DHT22;15806;53.548;9.964;2022-08-30T01:09:18;16.60;99.90
28614;DHT22;15806;53.548;9.964;2022-08-30T01:10:59;16.60;99.90
28614;DHT22;15806;53.548;9.964;2022-08-30T01:12:42;16.60;99.90
28614;DHT22;15806;53.548;9.964;2022-08-30T01:14:23;16.60;99.90
28614;DHT22;15806;53.548;9.964;2022-08-30T01:16:04;16.60;99.90
28614;DHT22;15806;53.548;9.964;2022-08-30T01:17:46;16.60;99.90
28614;DHT22;15806;53.548;9.964;2022-08-30T01:19:30;16.60;99.90
28614;DHT22;15806;53.548;9.964;2022-08-30T01:23:16;16.60;99.90
28614;DHT22;15806;53.548;9.964;2022-08-30T01:25:00;16.60;99.90
28614;DHT22;15806;53.548;9.964;2022-08-30T01:26:40;16.60;99.90
28614;DHT22;15806;53.548;9.964;2022-08-30T01:28:24;16.60;99.90
28614;DHT22;15806;53.548;9.964;2022-08-30T01:30:06;16.60;99.90
28614;DHT22;15806;53.548;9.964;2022-08-30T01:31:49;16.60;99.90
28614;DHT22;15806;53.548;9.964;2022-08-30T01:33:30;16.60;99.90
28614;DHT22;15806;53.548;9.964;2022-08-30T01:35:13;16.50;99.90
28614;DHT22;15806;53.548;9.964;2022-08-30T01:36:54;16.50;99.90
28614;DHT22;15806;53.548;9.964;2022-08-30T01:38:37;16.50;99.90
28614;DHT22;15806;53.548;9.964;2022-08-30T01:40:19;16.50;99.90
28614;DHT22;15806;53.548;9.964;2022-08-30T01:42:01;16.50;99.90
28614;DHT22;15806;53.548;9.964;2022-08-30T01:43:41;16.50;99.90
28614;DHT22;15806;53.548;9.964;2022-08-30T01:45:24;16.50;99.90
28614;DHT22;15806;53.548;9.964;2022-08-30T01:47:05;16.50;99.90
28614;DHT22;15806;53.548;9.964;2022-08-30T01:48:46;16.50;99.90
28614;DHT22;15806;53.548;9.964;2022-08-30T01:50:27;16.50;99.90
28614;DHT22;15806;53.548;9.964;2022-08-30T01:52:07;16.50;99.90
28614;DHT22;15806;53.548;9.964;2022-08-30T01:53:48;16.50;99.90
28614;DHT22;15806;53.548;9.964;2022-08-30T01:55:28;16.50;99.90
28614;DHT22;15806;53.548;9.964;2022-08-30T01:57:11;16.40;99.90
28614;DHT22;15806;53.548;9.964;2022-08-30T01:58:53;16.40;99.90
28614;DHT22;15806;53.548;9.964;2022-08-30T02:00:34;16.40;99.90
28614;DHT22;15806;53.548;9.964;2022-08-30T02:02:18;16.40;99.90
28614;DHT22;15806;53.548;9.964;2022-08-30T02:03:59;16.40;99.90
28614;DHT22;15806;53.548;9.964;2022-08-30T02:05:40;16.40;99.90
28614;DHT22;15806;53.548;9.964;2022-08-30T02:07:22;16.40;99.90
28614;DHT22;15806;53.548;9.964;2022-08-30T02:09:02;16.40;99.90
28614;DHT22;15806;53.548;9.964;2022-08-30T02:10:43;16.40;99.90
28614;DHT22;15806;53.548;9.964;2022-08-30T02:12:24;16.40;99.90
28614;DHT22;15806;53.548;9.964;2022-08-30T02:14:05;16.40;99.90
28614;DHT22;15806;53.548;9.964;2022-08-30T02:15:45;16.40;99.90
28614;DHT22;15806;53.548;9.964;2022-08-30T02:17:26;16.40;99.90
28614;DHT22;15806;53.548;9.964;2022-08-30T02:19:07;16.40;99.90
28614;DHT22;15806;53.548;9.964;2022-08-30T02:20:48;16.40;99.90
28614;DHT22;15806;53.548;9.964;2022-08-30T02:22:28;16.40;99.90
28614;DHT22;15806;53.548;9.964;2022-08-30T02:24:09;16.40;99.90
28614;DHT22;15806;53.548;9.964;2022-08-30T02:25:49;16.40;99.90
28614;DHT22;15806;53.548;9.964;2022-08-30T02:27:30;16.40;99.90
28614;DHT22;15806;53.548;9.964;2022-08-30T02:29:10;16.40;99.90
28614;DHT22;15806;53.548;9.964;2022-08-30T02:30:54;16.30;99.90
28614;DHT22;15806;53.548;9.964;2022-08-30T02:32:34;16.40;99.90
28614;DHT22;15806;53.548;9.964;2022-08-30T02:34:15;16.40;99.90
28614;DHT22;15806;53.548;9.964;2022-08-30T02:35:56;16.30;99.90
28614;DHT22;15806;53.548;9.964;2022-08-30T02:37:37;16.30;99.90
28614;DHT22;15806;53.548;9.964;2022-08-30T02:39:17;16.30;99.90
28614;DHT22;15806;53.548;9.964;2022-08-30T02:40:58;16.30;99.90
28614;DHT22;15806;53.548;9.964;2022-08-30T02:42:38;16.30;99.90
28614;DHT22;15806;53.548;9.964;2022-08-30T02:44:19;16.30;99.90
28614;DHT22;15806;53.548;9.964;2022-08-30T02:45:59;16.30;99.90
28614;DHT22;15806;53.548;9.964;2022-08-30T02:47:41;16.30;99.90
28614;DHT22;15806;53.548;9.964;2022-08-30T02:49:21;16.30;99.90
28614;DHT22;15806;53.548;9.964;2022-08-30T02:51:11;16.30;99.90
28614;DHT22;15806;53.548;9.964;2022-08-30T02:52:52;16.30;99.90
28614;DHT22;15806;53.548;9.964;2022-08-30T02:54:33;16.30;99.90
28614;DHT22;15806;53.548;9.964;2022-08-30T02:56:14;16.30;99.90
28614;DHT22;15806;53.548;9.964;2022-08-30T02:57:55;16.30;99.90
28614;DHT22;15806;53.548;9.964;2022-08-30T02:59:36;16.30;99.90
28614;DHT22;15806;53.548;9.964;2022-08-30T03:01:16;16.30;99.90
28614;DHT22;15806;53.548;9.964;2022-08-30T03:02:57;16.30;99.90
28614;DHT22;15806;53.548;9.964;2022-08-30T03:04:38;16.30;99.90
28614;DHT22;15806;53.548;9.964;2022-08-30T03:06:19;16.30;99.90
28614;DHT22;15806;53.548;9.964;2022-08-30T03:08:00;16.30;99.90
28614;DHT22;15806;53.548;9.964;2022-08-30T03:09:41;16.30;99.90
28614;DHT22;15806;53.548;9.964;2022-08-30T03:11:22;16.30;99.90
28614;DHT22;15806;53.548;9.964;2022-08-30T03:13:04;16.30;99.90
28614;DHT22;15806;53.548;9.964;2022-08-30T03:14:45;16.30;99.90
28614;DHT22;15806;53.548;9.964;2022-08-30T03:16:25;16.30;99.90
28614;DHT22;15806;53.548;9.964;2022-08-30T03:18:06;16.30;99.90
28614;DHT22;15806;53.548;9.964;2022-08-30T03:19:47;16.30;99.90
28614;DHT22;15806;53.548;9.964;2022-08-30T03:21:27;16.30;99.90
28614;DHT22;15806;53.548;9.964;2022-08-30T03:23:08;16.30;99.90
28614;DHT22;15806;53.548;9.964;2022-08-30T03:24:48;16.30;99.90
28614;DHT22;15806;53.548;9.964;2022-08-30T03:26:29;16.30;99.90
28614;DHT22;15806;53.548;9.964;2022-08-30T03:28:09;16.30;99.90
28614;DHT22;15806;53.548;9.964;2022-08-30T03:29:50;16.30;99.90
28614;DHT22;15806;53.548;9.964;2022-08-30T03:31:31;16.30;99.90
28614;DHT22;15806;53.548;9.964;2022-08-30T03:33:12;16.30;99.90
28614;DHT22;15806;53.548;9.964;2022-08-30T03:34:52;16.30;99.90
28614;DHT22;15806;53.548;9.964;2022-08-30T03:36:33;16.30;99.90
28614;DHT22;15806;53.548;9.964;2022-08-30T03:38:13;16.30;99.90
28614;DHT22;15806;53.548;9.964;2022-08-30T03:39:54;16.30;99.90
28614;DHT22;15806;53.548;9.964;2022-08-30T03:41:35;16.40;99.90
28614;DHT22;15806;53.548;9.964;2022-08-30T03:43:16;16.30;99.90
28614;DHT22;15806;53.548;9.964;2022-08-30T03:44:56;16.30;99.90
28614;DHT22;15806;53.548;9.964;2022-08-30T03:46:37;16.40;99.90
28614;DHT22;15806;53.548;9.964;2022-08-30T03:48:18;16.40;99.90
28614;DHT22;15806;53.548;9.964;2022-08-30T03:49:58;16.30;99.90
28614;DHT22;15806;53.548;9.964;2022-08-30T03:51:39;16.30;99.90
28614;DHT22;15806;53.548;9.964;2022-08-30T03:53:20;16.30;99.90
28614;DHT22;15806;53.548;9.964;2022-08-30T03:55:00;16.30;99.90
28614;DHT22;15806;53.548;9.964;2022-08-30T03:56:41;16.30;99.90
28614;DHT22;15806;53.548;9.964;2022-08-30T03:58:22;16.30;99.90
28614;DHT22;15806;53.548;9.964;2022-08-30T04:00:04;16.30;99.90
28614;DHT22;15806;53.548;9.964;2022-08-30T04:01:45;16.30;99.90
28614;DHT22;15806;53.548;9.964;2022-08-30T04:03:25;16.30;99.90
28614;DHT22;15806;53.548;9.964;2022-08-30T04:05:07;16.20;99.90
28614;DHT22;15806;53.548;9.964;2022-08-30T04:06:48;16.20;99.90
28614;DHT22;15806;53.548;9.964;2022-08-30T04:08:29;16.30;99.90
28614;DHT22;15806;53.548;9.964;2022-08-30T04:10:10;16.30;99.90
28614;DHT22;15806;53.548;9.964;2022-08-30T04:11:50;16.30;99.90
28614;DHT22;15806;53.548;9.964;2022-08-30T04:13:31;16.40;99.90
28614;DHT22;15806;53.548;9.964;2022-08-30T04:15:13;16.40;99.90
28614;DHT22;15806;53.548;9.964;2022-08-30T04:16:53;16.50;99.90
28614;DHT22;15806;53.548;9.964;2022-08-30T04:18:34;16.50;99.90
28614;DHT22;15806;53.548;9.964;2022-08-30T04:20:15;16.50;99.90
28614;DHT22;15806;53.548;9.964;2022-08-30T04:21:56;16.60;99.90
28614;DHT22;15806;53.548;9.964;2022-08-30T04:23:36;16.60;99.90
28614;DHT22;15806;53.548;9.964;2022-08-30T04:25:17;16.70;99.90
28614;DHT22;15806;53.548;9.964;2022-08-30T04:26:59;16.70;99.90
28614;DHT22;15806;53.548;9.964;2022-08-30T04:28:40;16.70;99.90
28614;DHT22;15806;53.548;9.964;2022-08-30T04:30:20;16.70;99.90
28614;DHT22;15806;53.548;9.964;2022-08-30T04:32:01;16.70;99.90
28614;DHT22;15806;53.548;9.964;2022-08-30T04:33:42;16.70;99.90
28614;DHT22;15806;53.548;9.964;2022-08-30T04:35:23;16.70;99.90
28614;DHT22;15806;53.548;9.964;2022-08-30T04:37:04;16.80;99.90
28614;DHT22;15806;53.548;9.964;2022-08-30T04:38:44;16.80;99.90
28614;DHT22;15806;53.548;9.964;2022-08-30T04:40:25;16.80;99.90
28614;DHT22;15806;53.548;9.964;2022-08-30T04:42:05;16.80;99.90
28614;DHT22;15806;53.548;9.964;2022-08-30T04:43:47;16.80;99.90
28614;DHT22;15806;53.548;9.964;2022-08-30T04:45:27;16.80;99.90
28614;DHT22;15806;53.548;9.964;2022-08-30T04:47:08;16.80;99.90
28614;DHT22;15806;53.548;9.964;2022-08-30T04:48:49;16.80;99.90
28614;DHT22;15806;53.548;9.964;2022-08-30T04:50:29;16.80;99.90
28614;DHT22;15806;53.548;9.964;2022-08-30T04:52:10;16.80;99.90
28614;DHT22;15806;53.548;9.964;2022-08-30T04:53:50;16.80;99.90
28614;DHT22;15806;53.548;9.964;2022-08-30T04:55:32;16.80;99.90
28614;DHT22;15806;53.548;9.964;2022-08-30T04:57:12;16.80;99.90
28614;DHT22;15806;53.548;9.964;2022-08-30T04:58:55;16.80;99.90
28614;DHT22;15806;53.548;9.964;2022-08-30T05:00:36;16.80;99.90
28614;DHT22;15806;53.548;9.964;2022-08-30T05:02:17;16.80;99.90
28614;DHT22;15806;53.548;9.964;2022-08-30T05:03:58;16.80;99.90
28614;DHT22;15806;53.548;9.964;2022-08-30T05:05:39;16.80;99.90
28614;DHT22;15806;53.548;9.964;2022-08-30T05:07:19;16.80;99.90
28614;DHT22;15806;53.548;9.964;2022-08-30T05:09:00;16.80;99.90
28614;DHT22;15806;53.548;9.964;2022-08-30T05:10:44;16.80;99.90
28614;DHT22;15806;53.548;9.964;2022-08-30T05:12:26;16.80;99.90
28614;DHT22;15806;53.548;9.964;2022-08-30T05:14:07;16.80;99.90
28614;DHT22;15806;53.548;9.964;2022-08-30T05:15:47;16.80;99.90
28614;DHT22;15806;53.548;9.964;2022-08-30T05:17:28;16.80;99.90
28614;DHT22;15806;53.548;9.964;2022-08-30T05:19:08;16.80;99.90
28614;DHT22;15806;53.548;9.964;2022-08-30T05:20:49;16.80;99.90
28614;DHT22;15806;53.548;9.964;2022-08-30T05:22:29;16.80;99.90
28614;DHT22;15806;53.548;9.964;2022-08-30T05:24:10;16.80;99.90
28614;DHT22;15806;53.548;9.964;2022-08-30T05:25:50;16.80;99.90
28614;DHT22;15806;53.548;9.964;2022-08-30T05:27:31;16.80;99.90
28614;DHT22;15806;53.548;9.964;2022-08-30T05:29:12;16.80;99.90
28614;DHT22;15806;53.548;9.964;2022-08-30T05:30:52;16.80;99.90
28614;DHT22;15806;53.548;9.964;2022-08-30T05:32:33;16.80;99.90
28614;DHT22;15806;53.548;9.964;2022-08-30T05:34:13;16.80;99.90
28614;DHT22;15806;53.548;9.964;2022-08-30T05:35:54;16.80;99.90
28614;DHT22;15806;53.548;9.964;2022-08-30T05:37:34;16.80;99.90
28614;DHT22;15806;53.548;9.964;2022-08-30T05:39:15;16.90;99.90
28614;DHT22;15806;53.548;9.964;2022-08-30T05:40:56;16.80;99.90
28614;DHT22;15806;53.548;9.964;2022-08-30T05:42:37;16.80;99.90
28614;DHT22;15806;53.548;9.964;2022-08-30T05:44:18;16.90;99.90
28614;DHT22;15806;53.548;9.964;2022-08-30T05:46:01;16.90;99.90
28614;DHT22;15806;53.548;9.964;2022-08-30T05:47:42;16.90;99.90
28614;DHT22;15806;53.548;9.964;2022-08-30T05:49:23;16.90;99.90
28614;DHT22;15806;53.548;9.964;2022-08-30T05:51:16;17.00;99.90
28614;DHT22;15806;53.548;9.964;2022-08-30T05:52:57;17.00;99.90
28614;DHT22;15806;53.548;9.964;2022-08-30T05:54:37;17.00;99.90
28614;DHT22;15806;53.548;9.964;2022-08-30T05:56:21;16.90;99.90
28614;DHT22;15806;53.548;9.964;2022-08-30T05:58:02;17.00;99.90
28614;DHT22;15806;53.548;9.964;2022-08-30T05:59:42;17.00;99.90
28614;DHT22;15806;53.548;9.964;2022-08-30T06:01:32;17.00;99.90
28614;DHT22;15806;53.548;9.964;2022-08-30T06:03:13;17.00;99.90
28614;DHT22;15806;53.548;9.964;2022-08-30T06:04:54;17.10;99.90
28614;DHT22;15806;53.548;9.964;2022-08-30T06:06:37;17.10;99.90
28614;DHT22;15806;53.548;9.964;2022-08-30T06:08:20;17.10;99.90
28614;DHT22;15806;53.548;9.964;2022-08-30T06:10:01;17.20;99.90
28614;DHT22;15806;53.548;9.964;2022-08-30T06:11:42;17.20;99.90
28614;DHT22;15806;53.548;9.964;2022-08-30T06:13:23;17.30;99.90
28614;DHT22;15806;53.548;9.964;2022-08-30T06:15:04;17.30;99.90
28614;DHT22;15806;53.548;9.964;2022-08-30T06:16:45;17.30;99.90
28614;DHT22;15806;53.548;9.964;2022-08-30T06:18:25;17.40;99.90
28614;DHT22;15806;53.548;9.964;2022-08-30T06:20:06;17.40;99.90
28614;DHT22;15806;53.548;9.964;2022-08-30T06:21:48;17.50;99.90
28614;DHT22;15806;53.548;9.964;2022-08-30T06:23:29;17.50;99.90
28614;DHT22;15806;53.548;9.964;2022-08-30T06:25:10;17.40;99.90
28614;DHT22;15806;53.548;9.964;2022-08-30T06:26:51;17.50;99.90
28614;DHT22;15806;53.548;9.964;2022-08-30T06:28:32;17.40;99.90
28614;DHT22;15806;53.548;9.964;2022-08-30T06:30:13;17.40;99.90
28614;DHT22;15806;53.548;9.964;2022-08-30T06:31:56;17.50;99.90
28614;DHT22;15806;53.548;9.964;2022-08-30T06:33:37;17.50;99.90
28614;DHT22;15806;53.548;9.964;2022-08-30T06:35:17;17.60;99.90
28614;DHT22;15806;53.548;9.964;2022-08-30T06:36:58;17.60;99.90
28614;DHT22;15806;53.548;9.964;2022-08-30T06:38:39;17.60;99.90
28614;DHT22;15806;53.548;9.964;2022-08-30T06:40:20;17.60;99.90
28614;DHT22;15806;53.548;9.964;2022-08-30T06:42:00;17.60;99.90
28614;DHT22;15806;53.548;9.964;2022-08-30T06:43:41;17.70;99.90
28614;DHT22;15806;53.548;9.964;2022-08-30T06:45:22;17.70;99.90
28614;DHT22;15806;53.548;9.964;2022-08-30T06:47:02;17.70;99.90
28614;DHT22;15806;53.548;9.964;2022-08-30T06:48:43;17.70;99.90
28614;DHT22;15806;53.548;9.964;2022-08-30T06:50:23;17.80;99.90
28614;DHT22;15806;53.548;9.964;2022-08-30T06:52:04;17.80;99.90
28614;DHT22;15806;53.548;9.964;2022-08-30T06:53:45;17.90;99.90
28614;DHT22;15806;53.548;9.964;2022-08-30T06:55:25;17.90;99.90
28614;DHT22;15806;53.548;9.964;2022-08-30T06:57:06;18.00;99.90
28614;DHT22;15806;53.548;9.964;2022-08-30T06:58:46;18.00;99.90
28614;DHT22;15806;53.548;9.964;2022-08-30T07:00:27;18.00;99.90
28614;DHT22;15806;53.548;9.964;2022-08-30T07:02:08;18.00;99.90
28614;DHT22;15806;53.548;9.964;2022-08-30T07:03:49;18.00;99.90
28614;DHT22;15806;53.548;9.964;2022-08-30T07:05:31;18.00;99.90
28614;DHT22;15806;53.548;9.964;2022-08-30T07:07:12;18.00;99.90
28614;DHT22;15806;53.548;9.964;2022-08-30T07:08:53;18.00;99.90
28614;DHT22;15806;53.548;9.964;2022-08-30T07:10:37;18.10;99.90
28614;DHT22;15806;53.548;9.964;2022-08-30T07:12:19;18.10;99.90
28614;DHT22;15806;53.548;9.964;2022-08-30T07:14:00;18.20;99.90
28614;DHT22;15806;53.548;9.964;2022-08-30T07:15:42;18.20;99.90
28614;DHT22;15806;53.548;9.964;2022-08-30T07:17:23;18.20;99.90
28614;DHT22;15806;53.548;9.964;2022-08-30T07:19:04;18.20;99.90
28614;DHT22;15806;53.548;9.964;2022-08-30T07:20:45;18.20;99.90
28614;DHT22;15806;53.548;9.964;2022-08-30T07:22:25;18.40;99.90
28614;DHT22;15806;53.548;9.964;2022-08-30T07:24:06;18.40;99.90
28614;DHT22;15806;53.548;9.964;2022-08-30T07:25:47;18.50;99.90
28614;DHT22;15806;53.548;9.964;2022-08-30T07:27:28;18.50;99.90
28614;DHT22;15806;53.548;9.964;2022-08-30T07:29:09;18.40;99.90
28614;DHT22;15806;53.548;9.964;2022-08-30T07:30:49;18.30;99.90
28614;DHT22;15806;53.548;9.964;2022-08-30T07:32:30;18.40;99.90
28614;DHT22;15806;53.548;9.964;2022-08-30T07:34:10;18.40;99.90
28614;DHT22;15806;53.548;9.964;2022-08-30T07:35:51;18.40;99.90
28614;DHT22;15806;53.548;9.964;2022-08-30T07:37:31;18.40;99.90
28614;DHT22;15806;53.548;9.964;2022-08-30T07:39:12;18.60;99.90
28614;DHT22;15806;53.548;9.964;2022-08-30T07:40:53;18.70;99.90
28614;DHT22;15806;53.548;9.964;2022-08-30T07:42:34;18.70;99.90
28614;DHT22;15806;53.548;9.964;2022-08-30T07:44:14;18.80;99.90
28614;DHT22;15806;53.548;9.964;2022-08-30T07:46:03;18.90;99.90
28614;DHT22;15806;53.548;9.964;2022-08-30T07:47:44;18.90;99.90
28614;DHT22;15806;53.548;9.964;2022-08-30T07:49:25;19.10;99.90
28614;DHT22;15806;53.548;9.964;2022-08-30T07:51:11;19.10;99.90
28614;DHT22;15806;53.548;9.964;2022-08-30T07:52:52;19.20;99.90
28614;DHT22;15806;53.548;9.964;2022-08-30T07:54:33;19.00;99.90
28614;DHT22;15806;53.548;9.964;2022-08-30T07:56:14;18.70;99.90
28614;DHT22;15806;53.548;9.964;2022-08-30T07:58:02;18.60;99.90
28614;DHT22;15806;53.548;9.964;2022-08-30T07:59:44;18.80;99.90
28614;DHT22;15806;53.548;9.964;2022-08-30T08:01:24;19.00;99.90
28614;DHT22;15806;53.548;9.964;2022-08-30T08:03:07;19.10;99.90
28614;DHT22;15806;53.548;9.964;2022-08-30T08:04:47;19.20;99.90
28614;DHT22;15806;53.548;9.964;2022-08-30T08:06:28;19.20;99.90
28614;DHT22;15806;53.548;9.964;2022-08-30T08:08:09;19.30;99.90
28614;DHT22;15806;53.548;9.964;2022-08-30T08:09:49;19.30;99.90
28614;DHT22;15806;53.548;9.964;2022-08-30T08:11:31;19.30;99.90
28614;DHT22;15806;53.548;9.964;2022-08-30T08:13:12;19.40;99.90
28614;DHT22;15806;53.548;9.964;2022-08-30T08:14:53;19.40;99.90
28614;DHT22;15806;53.548;9.964;2022-08-30T08:16:37;19.30;99.90
28614;DHT22;15806;53.548;9.964;2022-08-30T08:18:17;19.30;99.90
28614;DHT22;15806;53.548;9.964;2022-08-30T08:19:58;19.40;99.90
28614;DHT22;15806;53.548;9.964;2022-08-30T08:21:38;19.40;99.90
28614;DHT22;15806;53.548;9.964;2022-08-30T08:23:19;19.40;99.90
28614;DHT22;15806;53.548;9.964;2022-08-30T08:24:59;19.30;99.90
28614;DHT22;15806;53.548;9.964;2022-08-30T08:26:43;19.20;99.90
28614;DHT22;15806;53.548;9.964;2022-08-30T08:28:23;19.20;99.90
28614;DHT22;15806;53.548;9.964;2022-08-30T08:30:04;19.20;99.90
28614;DHT22;15806;53.548;9.964;2022-08-30T08:31:45;19.20;99.90
28614;DHT22;15806;53.548;9.964;2022-08-30T08:33:26;19.20;99.90
28614;DHT22;15806;53.548;9.964;2022-08-30T08:35:06;19.20;99.90
28614;DHT22;15806;53.548;9.964;2022-08-30T08:36:47;19.10;99.90
28614;DHT22;15806;53.548;9.964;2022-08-30T08:38:28;19.20;99.90
28614;DHT22;15806;53.548;9.964;2022-08-30T08:40:13;19.20;99.90
28614;DHT22;15806;53.548;9.964;2022-08-30T08:42:17;19.10;99.90
28614;DHT22;15806;53.548;9.964;2022-08-30T08:43:58;19.00;99.90
28614;DHT22;15806;53.548;9.964;2022-08-30T08:49:20;19.10;99.90
28614;DHT22;15806;53.548;9.964;2022-08-30T08:51:02;19.00;99.90
28614;DHT22;15806;53.548;9.964;2022-08-30T08:52:55;19.00;99.90
28614;DHT22;15806;53.548;9.964;2022-08-30T08:54:48;19.00;99.90
28614;DHT22;15806;53.548;9.964;2022-08-30T08:56:31;19.00;99.90
28614;DHT22;15806;53.548;9.964;2022-08-30T08:58:21;19.20;99.90
28614;DHT22;15806;53.548;9.964;2022-08-30T09:00:08;19.30;99.90
28614;DHT22;15806;53.548;9.964;2022-08-30T09:01:49;19.30;99.90
28614;DHT22;15806;53.548;9.964;2022-08-30T09:03:30;19.40;99.90
28614;DHT22;15806;53.548;9.964;2022-08-30T09:05:16;19.40;99.90
28614;DHT22;15806;53.548;9.964;2022-08-30T09:07:34;19.80;99.90
28614;DHT22;15806;53.548;9.964;2022-08-30T09:09:07;19.90;99.90
28614;DHT22;15806;53.548;9.964;2022-08-30T09:10:54;20.00;99.90
28614;DHT22;15806;53.548;9.964;2022-08-30T09:12:36;19.80;99.90
28614;DHT22;15806;53.548;9.964;2022-08-30T09:14:30;19.80;99.90
28614;DHT22;15806;53.548;9.964;2022-08-30T09:18:44;19.80;99.90
28614;DHT22;15806;53.548;9.964;2022-08-30T09:20:33;19.60;99.90
28614;DHT22;15806;53.548;9.964;2022-08-30T09:22:34;19.50;99.90
28614;DHT22;15806;53.548;9.964;2022-08-30T09:24:15;19.50;99.90
28614;DHT22;15806;53.548;9.964;2022-08-30T09:26:05;19.60;99.90
28614;DHT22;15806;53.548;9.964;2022-08-30T09:27:47;19.70;99.90
28614;DHT22;15806;53.548;9.964;2022-08-30T09:29:28;19.70;99.90
28614;DHT22;15806;53.548;9.964;2022-08-30T09:31:30;19.80;99.90
28614;DHT22;15806;53.548;9.964;2022-08-30T09:33:19;19.80;99.90
28614;DHT22;15806;53.548;9.964;2022-08-30T09:35:01;19.70;99.90
28614;DHT22;15806;53.548;9.964;2022-08-30T09:38:31;19.60;99.90
28614;DHT22;15806;53.548;9.964;2022-08-30T09:40:20;19.70;99.90
28614;DHT22;15806;53.548;9.964;2022-08-30T09:42:19;19.70;99.90
28614;DHT22;15806;53.548;9.964;2022-08-30T09:44:16;19.70;99.90
28614;DHT22;15806;53.548;9.964;2022-08-30T09:47:42;19.80;99.90
28614;DHT22;15806;53.548;9.964;2022-08-30T09:49:34;19.80;99.90
28614;DHT22;15806;53.548;9.964;2022-08-30T09:51:23;19.60;99.90
28614;DHT22;15806;53.548;9.964;2022-08-30T09:53:16;19.50;99.90
28614;DHT22;15806;53.548;9.964;2022-08-30T09:57:31;19.60;99.90
28614;DHT22;15806;53.548;9.964;2022-08-30T09:59:37;19.50;99.90
28614;DHT22;15806;53.548;9.964;2022-08-30T10:01:28;19.50;99.90
28614;DHT22;15806;53.548;9.964;2022-08-30T10:07:03;19.50;99.90
28614;DHT22;15806;53.548;9.964;2022-08-30T10:10:58;19.60;99.90
28614;DHT22;15806;53.548;9.964;2022-08-30T10:17:32;19.40;99.90
28614;DHT22;15806;53.548;9.964;2022-08-30T10:23:05;19.40;99.90
28614;DHT22;15806;53.548;9.964;2022-08-30T10:24:52;19.50;99.90
28614;DHT22;15806;53.548;9.964;2022-08-30T10:26:41;19.60;99.90
28614;DHT22;15806;53.548;9.964;2022-08-30T10:28:28;19.60;99.90
28614;DHT22;15806;53.548;9.964;2022-08-30T10:30:11;19.70;99.90
28614;DHT22;15806;53.548;9.964;2022-08-30T10:34:03;20.00;99.90
28614;DHT22;15806;53.548;9.964;2022-08-30T10:35:51;19.90;99.90
28614;DHT22;15806;53.548;9.964;2022-08-30T10:37:39;20.00;99.90
28614;DHT22;15806;53.548;9.964;2022-08-30T10:39:23;20.00;99.90
28614;DHT22;15806;53.548;9.964;2022-08-30T10:45:36;20.00;99.90
28614;DHT22;15806;53.548;9.964;2022-08-30T10:47:34;20.00;99.90
28614;DHT22;15806;53.548;9.964;2022-08-30T10:49:20;20.10;99.90
28614;DHT22;15806;53.548;9.964;2022-08-30T10:51:09;20.20;99.90
28614;DHT22;15806;53.548;9.964;2022-08-30T10:52:59;20.40;99.90
28614;DHT22;15806;53.548;9.964;2022-08-30T10:56:28;20.20;99.90
28614;DHT22;15806;53.548;9.964;2022-08-30T10:58:10;20.10;99.90
28614;DHT22;15806;53.548;9.964;2022-08-30T11:00:04;20.30;99.90
28614;DHT22;15806;53.548;9.964;2022-08-30T11:06:24;20.10;99.90
28614;DHT22;15806;53.548;9.964;2022-08-30T11:08:25;20.40;99.90
28614;DHT22;15806;53.548;9.964;2022-08-30T11:10:19;20.90;99.90
28614;DHT22;15806;53.548;9.964;2022-08-30T11:12:37;21.20;99.90
28614;DHT22;15806;53.548;9.964;2022-08-30T11:14:23;21.50;99.90
28614;DHT22;15806;53.548;9.964;2022-08-30T11:16:12;21.90;99.90
28614;DHT22;15806;53.548;9.964;2022-08-30T11:19:40;22.80;99.90
28614;DHT22;15806;53.548;9.964;2022-08-30T11:21:39;23.40;99.90
28614;DHT22;15806;53.548;9.964;2022-08-30T11:23:33;24.40;99.90
28614;DHT22;15806;53.548;9.964;2022-08-30T11:27:54;28.50;99.90
28614;DHT22;15806;53.548;9.964;2022-08-30T11:29:39;25.70;99.90
28614;DHT22;15806;53.548;9.964;2022-08-30T11:33:27;24.60;99.90
28614;DHT22;15806;53.548;9.964;2022-08-30T11:35:06;23.20;99.90
28614;DHT22;15806;53.548;9.964;2022-08-30T11:44:30;20.80;99.90